Ryurik — UBUA — position and weather

sailwx.info

Track history (hours):
 
Tides and Currents Weather Stations Pressure Air Temp Water Temp Dewpoint Dewpoint Depression Visibility Wind Speed Wind Dir Waves Ship Positions

Ryurik

Last reported at 2017-Nov-24 14:30 UTC. Time now 2017-Nov-24 14:53 UTC.
Position N 59°42' E 028°21'.

; draft 5.9 m.

Type: Tug. MMSI: 273435190.

Date/timePositionNaut miles runAvg speedWind from/ knotsBaromVisibWave heightAir tempDewpointWater temp
2017-Nov-24 14:30N 59°42' E 028°21'0 0.0
2017-Nov-24 14:00N 59°42' E 028°21'0 0.0
2017-Nov-24 13:30N 59°42' E 028°21'0 0.0
2017-Nov-24 12:51N 59°42' E 028°21'0 0.0
2017-Nov-24 12:21N 59°42' E 028°21'0 0.1
2017-Nov-24 12:00N 59°42' E 028°21'2 3.7
2017-Nov-24 11:30N 59°41' E 028°24'1 1.7
2017-Nov-24 11:00N 59°40' E 028°24'2 4.0
2017-Nov-24 10:30N 59°42' E 028°26'0 0.0
2017-Nov-24 10:00N 59°42' E 028°26'0 0.7
2017-Nov-24 09:30N 59°42' E 028°25'1 2.0
2017-Nov-24 09:00N 59°43' E 028°24'1 1.4
2017-Nov-24 08:30N 59°43' E 028°22'0 0.5
2017-Nov-24 08:00N 59°43' E 028°23'1 2.7
2017-Nov-24 07:30N 59°42' E 028°21'0 0.5
2017-Nov-24 07:00N 59°42' E 028°20'0 0.0
2017-Nov-24 06:30N 59°42' E 028°20'0 0.0
2017-Nov-24 06:00N 59°42' E 028°20'0 0.0
2017-Nov-24 05:30N 59°42' E 028°20'3 6.4
2017-Nov-24 05:00N 59°44' E 028°25'1 2.8
2017-Nov-24 04:30N 59°42' E 028°26'0 0.2
2017-Nov-24 04:00N 59°42' E 028°26'3 5.5
2017-Nov-24 03:30N 59°42' E 028°20'0 0.7
2017-Nov-24 03:00N 59°42' E 028°19'0 0.0
2017-Nov-24 02:30N 59°42' E 028°19'0 0.0
2017-Nov-24 02:00N 59°42' E 028°19'0 0.0
2017-Nov-24 01:30N 59°42' E 028°19'0 0.0
2017-Nov-24 01:00N 59°42' E 028°19'0 0.0
2017-Nov-24 00:30N 59°42' E 028°19'0 0.0
2017-Nov-24 00:00N 59°42' E 028°19'0 0.0
2017-Nov-23 23:30N 59°42' E 028°19'0 0.0
2017-Nov-23 23:00N 59°42' E 028°19'0 0.0
2017-Nov-23 22:30N 59°42' E 028°19'0 0.0
2017-Nov-23 22:00N 59°42' E 028°19'0 0.0
2017-Nov-23 21:30N 59°42' E 028°19'2 4.6
2017-Nov-23 21:00N 59°42' E 028°24'2 3.4
2017-Nov-23 20:30N 59°41' E 028°23'1 1.1
2017-Nov-23 20:00N 59°41' E 028°24'2 4.0
2017-Nov-23 19:30N 59°43' E 028°24'3 5.3
2017-Nov-23 19:00N 59°45' E 028°24'4 7.9
2017-Nov-23 18:30N 59°42' E 028°20'0 0.1
2017-Nov-23 18:00N 59°42' E 028°20'0 0.0
2017-Nov-23 17:30N 59°42' E 028°20'0 0.0
2017-Nov-23 17:00N 59°42' E 028°20'0 0.0
2017-Nov-23 16:30N 59°42' E 028°20'0 0.0
2017-Nov-23 16:00N 59°42' E 028°20'0 0.0
2017-Nov-23 15:30N 59°42' E 028°20'0 0.0
2017-Nov-23 15:00N 59°42' E 028°20'0 0.0
2017-Nov-23 14:30N 59°42' E 028°20'0 0.0
2017-Nov-23 14:00N 59°42' E 028°20'0 0.0
2017-Nov-23 13:30N 59°42' E 028°20'0 0.0
2017-Nov-23 13:00N 59°42' E 028°20'0 0.0
2017-Nov-23 12:30N 59°42' E 028°20'0 0.0
2017-Nov-23 12:00N 59°42' E 028°20'0 0.0
2017-Nov-23 11:30N 59°42' E 028°20'0 0.0
2017-Nov-23 11:00N 59°42' E 028°20'0 0.0
2017-Nov-23 10:30N 59°42' E 028°20'0 0.0
2017-Nov-23 10:00N 59°42' E 028°20'0 0.0
2017-Nov-23 09:30N 59°42' E 028°20'0 0.0
2017-Nov-23 09:00N 59°42' E 028°20'0 0.0
2017-Nov-23 08:30N 59°42' E 028°20'0 0.0
2017-Nov-23 08:00N 59°42' E 028°20'0 0.0
2017-Nov-23 07:30N 59°42' E 028°20'0 0.0
2017-Nov-23 07:00N 59°42' E 028°20'0 0.0
2017-Nov-23 06:30N 59°42' E 028°20'0 0.0
2017-Nov-23 06:00N 59°42' E 028°20'0 0.0
2017-Nov-23 05:30N 59°42' E 028°20'0 0.0
2017-Nov-23 05:00N 59°42' E 028°20'0 0.0
2017-Nov-23 04:30N 59°42' E 028°20'0 0.0
2017-Nov-23 04:00N 59°42' E 028°20'0 0.0
2017-Nov-23 03:30N 59°42' E 028°20'0 0.0
2017-Nov-23 03:00N 59°42' E 028°20'0 0.0
2017-Nov-23 02:30N 59°42' E 028°20'0 0.0
2017-Nov-23 02:00N 59°42' E 028°20'0 0.0
2017-Nov-23 01:30N 59°42' E 028°20'0 0.0
2017-Nov-23 01:00N 59°42' E 028°20'0 0.0
2017-Nov-23 00:30N 59°42' E 028°20'0 0.0
2017-Nov-23 00:00N 59°42' E 028°20'2 3.2
2017-Nov-22 23:30N 59°43' E 028°23'2 3.0
2017-Nov-22 23:00N 59°42' E 028°26'0 0.0
2017-Nov-22 22:30N 59°42' E 028°26'0 0.1
2017-Nov-22 22:00N 59°42' E 028°25'1 1.5
2017-Nov-22 21:30N 59°42' E 028°24'2 3.4
2017-Nov-22 21:00N 59°43' E 028°23'2 3.9
2017-Nov-22 20:30N 59°41' E 028°25'0 0.0
2017-Nov-22 20:00N 59°41' E 028°25'0 0.2
2017-Nov-22 19:30N 59°42' E 028°25'  
2017-Nov-20 00:31N 59°42' E 028°22'0 0.0
2017-Nov-20 00:01N 59°42' E 028°22'0 0.0
2017-Nov-19 23:30N 59°42' E 028°22'0 0.0
2017-Nov-19 23:00N 59°42' E 028°22'0 0.0
2017-Nov-19 22:30N 59°42' E 028°22'0 0.0
2017-Nov-19 22:00N 59°42' E 028°22'0 0.0
2017-Nov-19 21:30N 59°42' E 028°22'0 0.0
2017-Nov-19 21:00N 59°42' E 028°22'0 0.0
2017-Nov-19 20:30N 59°42' E 028°22'1 3.0
2017-Nov-19 20:00N 59°43' E 028°23'2 3.1
2017-Nov-19 19:30N 59°44' E 028°25'2 3.5
2017-Nov-19 19:00N 59°42' E 028°25'0 0.2
2017-Nov-19 18:30N 59°42' E 028°26'1 1.8
2017-Nov-19 18:00N 59°41' E 028°25'2 3.8
2017-Nov-19 17:30N 59°42' E 028°21'0 0.0
2017-Nov-19 17:00N 59°42' E 028°21'0 0.0
2017-Nov-19 16:30N 59°42' E 028°21'0 0.0
2017-Nov-19 16:00N 59°42' E 028°21'0 0.0
2017-Nov-19 15:30N 59°42' E 028°21'0 0.0
2017-Nov-19 15:00N 59°42' E 028°21'0 0.0
2017-Nov-19 14:31N 59°42' E 028°21'0 0.0
2017-Nov-19 14:00N 59°42' E 028°21'0 0.0
2017-Nov-19 13:30N 59°42' E 028°21'0 0.0
2017-Nov-19 13:00N 59°42' E 028°21'0 0.0
2017-Nov-19 12:31N 59°42' E 028°21'0 0.0
2017-Nov-19 12:01N 59°42' E 028°21'2 3.5
2017-Nov-19 11:30N 59°41' E 028°25'0 0.8
2017-Nov-19 11:00N 59°41' E 028°25'1 1.9
2017-Nov-19 10:30N 59°42' E 028°24'1 2.5
2017-Nov-19 10:00N 59°42' E 028°22'0 0.0
2017-Nov-19 09:30N 59°42' E 028°22'0 0.0
2017-Nov-19 09:00N 59°42' E 028°22'0 0.0
2017-Nov-19 08:30N 59°42' E 028°22'0 0.0
2017-Nov-19 08:00N 59°42' E 028°22'0 0.0
2017-Nov-19 07:30N 59°42' E 028°22'0 0.0
2017-Nov-19 07:00N 59°42' E 028°22'0 0.0
2017-Nov-19 06:30N 59°42' E 028°22'0 0.0
2017-Nov-19 06:00N 59°42' E 028°22'0 0.0
2017-Nov-19 05:30N 59°42' E 028°22'0 0.0
2017-Nov-19 05:00N 59°42' E 028°22'0 0.0
2017-Nov-19 04:30N 59°42' E 028°22'0 0.0
2017-Nov-19 04:00N 59°42' E 028°22'0 0.0
2017-Nov-19 03:30N 59°42' E 028°22'0 0.0
2017-Nov-19 03:00N 59°42' E 028°22'0 0.0
2017-Nov-19 02:30N 59°42' E 028°22'0 0.0
2017-Nov-19 02:00N 59°42' E 028°22'0 0.0
2017-Nov-19 01:31N 59°42' E 028°22'0 0.0
2017-Nov-19 01:00N 59°42' E 028°22'0 0.0
2017-Nov-19 00:30N 59°42' E 028°22'0 0.0
2017-Nov-19 00:01N 59°42' E 028°22'0 0.0
2017-Nov-18 23:31N 59°42' E 028°22'0 0.0
2017-Nov-18 23:00N 59°42' E 028°22'0 0.0
2017-Nov-18 22:30N 59°42' E 028°22'1 3.0
2017-Nov-18 22:01N 59°43' E 028°23'2 3.8
2017-Nov-18 21:31N 59°45' E 028°25'2 4.3
2017-Nov-18 21:00N 59°42' E 028°25'0 0.1
2017-Nov-18 20:30N 59°42' E 028°26'0 0.3
2017-Nov-18 20:00N 59°42' E 028°25'1 1.3
2017-Nov-18 19:31N 59°42' E 028°25'0 0.8
2017-Nov-18 19:00N 59°41' E 028°25'0 0.0
2017-Nov-18 18:30N 59°41' E 028°25'2 3.5
2017-Nov-18 18:00N 59°42' E 028°22'1 1.4
2017-Nov-18 17:30N 59°42' E 028°22'0 0.0
2017-Nov-18 17:00N 59°42' E 028°22'0 0.0
2017-Nov-18 16:30N 59°42' E 028°22'0 0.0
2017-Nov-18 16:00N 59°42' E 028°22'0 0.0
2017-Nov-18 15:30N 59°42' E 028°22'0 0.0
2017-Nov-18 15:00N 59°42' E 028°22'0 0.0
2017-Nov-18 14:30N 59°42' E 028°22'0 0.8
2017-Nov-18 14:00N 59°42' E 028°22'2 3.7
2017-Nov-18 13:30N 59°41' E 028°24'0 0.8
2017-Nov-18 13:00N 59°41' E 028°23'2 3.4
2017-Nov-18 12:30N 59°42' E 028°21'0 0.6
2017-Nov-18 12:00N 59°42' E 028°20'2 4.0
2017-Nov-18 11:30N 59°42' E 028°24'1 2.0
2017-Nov-18 11:01N 59°42' E 028°26'0 0.4
2017-Nov-18 10:31N 59°42' E 028°25'1 1.4
2017-Nov-18 10:01N 59°42' E 028°24'4 7.7
2017-Nov-18 09:31N 59°46' E 028°24'4 7.5
2017-Nov-18 09:00N 59°42' E 028°24'2 3.1
2017-Nov-18 08:30N 59°40' E 028°24'0 0.0
2017-Nov-18 08:01N 59°40' E 028°24'2 3.6
2017-Nov-18 07:31N 59°42' E 028°22'0 0.1
2017-Nov-18 06:56N 59°42' E 028°22'0 0.0
2017-Nov-18 06:26N 59°42' E 028°22'0 0.0
2017-Nov-18 05:56N 59°42' E 028°22'0 0.0
2017-Nov-18 05:26N 59°42' E 028°22'0 0.0
2017-Nov-18 04:56N 59°42' E 028°22'0 0.0
2017-Nov-18 04:26N 59°42' E 028°22'0 0.0
2017-Nov-18 03:59N 59°42' E 028°22'0 0.0
2017-Nov-18 03:29N 59°42' E 028°22'0 0.0
2017-Nov-18 02:59N 59°42' E 028°22'0 0.0
2017-Nov-18 02:29N 59°42' E 028°22'0 0.0
2017-Nov-18 01:56N 59°42' E 028°22'0 0.0
2017-Nov-18 01:29N 59°42' E 028°22'0 0.0
2017-Nov-18 00:59N 59°42' E 028°22'0 0.0
2017-Nov-18 00:29N 59°42' E 028°22'0 0.0
2017-Nov-17 23:59N 59°42' E 028°22'0 0.0
2017-Nov-17 23:29N 59°42' E 028°22'1 1.2
2017-Nov-17 23:00N 59°42' E 028°22'2 3.6
2017-Nov-17 22:30N 59°41' E 028°25'0 0.5
2017-Nov-17 22:00N 59°41' E 028°25'2 3.6
2017-Nov-17 21:30N 59°43' E 028°23'0 0.7
2017-Nov-17 21:00N 59°43' E 028°24'1 2.8
2017-Nov-17 20:30N 59°41' E 028°25'0 0.1
2017-Nov-17 20:00N 59°41' E 028°25'0 0.0
2017-Nov-17 19:30N 59°41' E 028°25'2 3.0
2017-Nov-17 18:55N 59°42' E 028°22'0 0.0
2017-Nov-17 18:25N 59°42' E 028°22'0 0.0
2017-Nov-17 17:55N 59°42' E 028°22'0 0.0
2017-Nov-17 17:25N 59°42' E 028°22'0 0.0
2017-Nov-17 16:55N 59°42' E 028°22'0 0.0
2017-Nov-17 16:25N 59°42' E 028°22'0 0.0
2017-Nov-17 15:58N 59°42' E 028°22'0 0.0
2017-Nov-17 15:28N 59°42' E 028°22'0 0.0
2017-Nov-17 14:55N 59°42' E 028°22'0 0.0
2017-Nov-17 14:28N 59°42' E 028°22'0 0.0
2017-Nov-17 13:58N 59°42' E 028°22'0 0.0
2017-Nov-17 13:28N 59°42' E 028°22'0 0.0
2017-Nov-17 12:58N 59°42' E 028°22'0 0.0
2017-Nov-17 12:28N 59°42' E 028°22'0 0.0
2017-Nov-17 11:58N 59°42' E 028°22'0 0.0
2017-Nov-17 11:28N 59°42' E 028°22'0 0.0
2017-Nov-17 10:58N 59°42' E 028°22'0 0.0
2017-Nov-17 10:28N 59°42' E 028°22'0 0.0
2017-Nov-17 09:58N 59°42' E 028°22'0 0.0
2017-Nov-17 09:28N 59°42' E 028°22'0 0.0
2017-Nov-17 08:49N 59°42' E 028°22'0 0.0
2017-Nov-17 08:19N 59°42' E 028°22'0 0.0
2017-Nov-17 07:49N 59°42' E 028°22'0 0.0
2017-Nov-17 07:22N 59°42' E 028°22'0 0.0
2017-Nov-17 06:52N 59°42' E 028°22'0 0.0
2017-Nov-17 06:22N 59°42' E 028°22'0 0.0
2017-Nov-17 05:52N 59°42' E 028°22'0 0.0
2017-Nov-17 05:26N 59°42' E 028°22'0 0.6
2017-Nov-17 05:00N 59°42' E 028°22'2 3.8
2017-Nov-17 04:30N 59°43' E 028°26'0 0.0
2017-Nov-17 04:00N 59°43' E 028°26'0 0.1
2017-Nov-17 03:30N 59°43' E 028°25'1 2.0
2017-Nov-17 03:00N 59°42' E 028°25'2 3.5
2017-Nov-17 02:30N 59°43' E 028°23'1 2.8
2017-Nov-17 02:00N 59°44' E 028°25'0 0.5
2017-Nov-17 01:30N 59°44' E 028°25'0 0.5
2017-Nov-17 01:00N 59°44' E 028°24'0 0.5
2017-Nov-17 00:30N 59°44' E 028°24'3 5.7
2017-Nov-17 00:00N 59°41' E 028°24'1 1.4
2017-Nov-16 23:30N 59°41' E 028°23'1 1.0
2017-Nov-16 23:00N 59°41' E 028°24'2 3.9
2017-Nov-16 22:31N 59°43' E 028°24'3 6.1
2017-Nov-16 22:00N 59°46' E 028°24'3 6.6
2017-Nov-16 21:30N 59°42' E 028°22'1 1.4
2017-Nov-16 20:59N 59°42' E 028°22'0 0.0
2017-Nov-16 20:20N 59°42' E 028°22'0 0.0
2017-Nov-16 19:05N 59°42' E 028°22'0 0.0
2017-Nov-16 18:50N 59°42' E 028°22'0 0.0
2017-Nov-16 18:20N 59°42' E 028°22'0 0.0
2017-Nov-16 17:53N 59°42' E 028°22'0 0.0
2017-Nov-16 17:20N 59°42' E 028°22'0 0.0
2017-Nov-16 16:53N 59°42' E 028°22'0 0.0
2017-Nov-16 16:23N 59°42' E 028°22'0 0.0
2017-Nov-16 15:53N 59°42' E 028°22'0 0.0
2017-Nov-16 15:23N 59°42' E 028°22'0 0.0
2017-Nov-16 14:56N 59°42' E 028°22'0 0.0
2017-Nov-16 14:30N 59°42' E 028°22'2 3.7
2017-Nov-16 14:00N 59°41' E 028°25'0 0.1
2017-Nov-16 13:30N 59°41' E 028°25'0 0.2
2017-Nov-16 13:00N 59°41' E 028°25'0 0.0
2017-Nov-16 12:30N 59°41' E 028°25'2 3.8
2017-Nov-16 12:00N 59°42' E 028°22'1 1.1
2017-Nov-16 11:28N 59°42' E 028°22'0 0.0
2017-Nov-16 10:58N 59°42' E 028°22'0 0.0
2017-Nov-16 10:28N 59°42' E 028°22'0 0.0
2017-Nov-16 09:58N 59°42' E 028°22'0 0.0
2017-Nov-16 09:28N 59°42' E 028°22'0 0.0
2017-Nov-16 08:58N 59°42' E 028°22'0 0.0
2017-Nov-16 08:19N 59°42' E 028°22'0 0.0
2017-Nov-16 07:46N 59°42' E 028°22'0 0.0
2017-Nov-16 07:19N 59°42' E 028°22'0 0.0
2017-Nov-16 06:52N 59°42' E 028°22'0 0.0
2017-Nov-16 06:22N 59°42' E 028°22'0 0.0
2017-Nov-16 05:49N 59°42' E 028°22'0 0.0
2017-Nov-16 05:22N 59°42' E 028°22'0 0.0
2017-Nov-16 04:52N 59°42' E 028°22'0 0.0
2017-Nov-16 04:25N 59°42' E 028°22'0 0.0
2017-Nov-16 03:55N 59°42' E 028°22'0 0.1
2017-Nov-16 03:25N 59°42' E 028°22'0 0.0
2017-Nov-16 02:55N 59°42' E 028°22'0 0.0
2017-Nov-16 02:25N 59°42' E 028°22'0 0.0
2017-Nov-16 01:52N 59°42' E 028°22'0 0.0
2017-Nov-16 01:28N 59°42' E 028°22'0 0.0
2017-Nov-16 00:58N 59°42' E 028°22'0 0.0
2017-Nov-16 00:28N 59°42' E 028°22'1 2.8
2017-Nov-16 00:00N 59°43' E 028°24'1 2.7
2017-Nov-15 23:30N 59°41' E 028°25'0 0.0
2017-Nov-15 23:00N 59°41' E 028°25'0 0.9
2017-Nov-15 22:30N 59°41' E 028°25'0 0.0
2017-Nov-15 22:00N 59°41' E 028°25'1 1.5
2017-Nov-15 21:30N 59°42' E 028°24'2 3.2
2017-Nov-15 21:00N 59°43' E 028°23'2 4.4
2017-Nov-15 20:30N 59°41' E 028°25'0 0.3
2017-Nov-15 20:01N 59°41' E 028°25'0 0.0
2017-Nov-15 19:31N 59°41' E 028°25'0 0.1
2017-Nov-15 19:00N 59°41' E 028°25'0 0.7
2017-Nov-15 18:31N 59°41' E 028°25'0 0.6
2017-Nov-15 18:00N 59°41' E 028°25'2 3.3
2017-Nov-15 17:30N 59°43' E 028°24'2 3.4
2017-Nov-15 17:00N 59°42' E 028°21'0 0.1
2017-Nov-15 16:30N 59°42' E 028°21'0 0.0
2017-Nov-15 16:00N 59°42' E 028°21'0 0.0
2017-Nov-15 15:30N 59°42' E 028°21'0 0.0
2017-Nov-15 15:00N 59°42' E 028°21'0 0.0
2017-Nov-15 14:30N 59°42' E 028°21'0 0.0
2017-Nov-15 14:00N 59°42' E 028°21'0 0.0
2017-Nov-15 13:30N 59°42' E 028°21'0 0.0
2017-Nov-15 13:00N 59°42' E 028°21'0 0.0
2017-Nov-15 12:30N 59°42' E 028°21'0 0.0
2017-Nov-15 12:00N 59°42' E 028°21'0 0.0
2017-Nov-15 11:30N 59°42' E 028°21'0 0.0
2017-Nov-15 11:00N 59°42' E 028°21'0 0.0
2017-Nov-15 10:30N 59°42' E 028°21'0 0.0
2017-Nov-15 09:51N 59°42' E 028°21'0 0.0
2017-Nov-15 09:06N 59°42' E 028°21'0 0.0
2017-Nov-15 08:51N 59°42' E 028°21'0 0.0
2017-Nov-15 08:24N 59°42' E 028°21'0 0.0
2017-Nov-15 07:54N 59°42' E 028°21'0 0.0
2017-Nov-15 07:24N 59°42' E 028°21'0 0.0
2017-Nov-15 06:54N 59°42' E 028°21'0 0.0
2017-Nov-15 06:24N 59°42' E 028°21'0 0.0
2017-Nov-15 05:54N 59°42' E 028°21'0 0.0
2017-Nov-15 05:24N 59°42' E 028°21'0 0.0
2017-Nov-15 04:57N 59°42' E 028°21'0 0.0
2017-Nov-15 04:27N 59°42' E 028°21'0 0.0
2017-Nov-15 03:57N 59°42' E 028°21'0 0.0
2017-Nov-15 03:27N 59°42' E 028°21'0 0.0
2017-Nov-15 02:54N 59°42' E 028°21'0 0.0
2017-Nov-15 02:30N 59°42' E 028°21'0 0.0
2017-Nov-15 02:00N 59°42' E 028°21'0 0.0
2017-Nov-15 01:30N 59°42' E 028°21'0 0.0
2017-Nov-15 01:00N 59°42' E 028°21'0 0.0
2017-Nov-15 00:30N 59°42' E 028°21'0 0.0
2017-Nov-14 23:57N 59°42' E 028°21'0 0.0
2017-Nov-14 23:30N 59°42' E 028°21'0 0.0
2017-Nov-14 23:00N 59°42' E 028°21'0 0.0
2017-Nov-14 22:30N 59°42' E 028°21'0 0.0
2017-Nov-14 22:00N 59°42' E 028°21'0 0.0
2017-Nov-14 21:30N 59°42' E 028°21'0 0.0
2017-Nov-14 21:00N 59°42' E 028°21'0 0.0
2017-Nov-14 20:30N 59°42' E 028°21'0 0.0
2017-Nov-14 19:51N 59°42' E 028°21'0 0.0
2017-Nov-14 19:21N 59°42' E 028°21'0 0.0
2017-Nov-14 18:51N 59°42' E 028°21'0 0.0
2017-Nov-14 18:21N 59°42' E 028°21'0 0.0
2017-Nov-14 17:54N 59°42' E 028°21'0 0.0
2017-Nov-14 17:24N 59°42' E 028°21'0 0.0
2017-Nov-14 16:54N 59°42' E 028°21'0 0.0
2017-Nov-14 16:21N 59°42' E 028°21'0 0.0
2017-Nov-14 15:54N 59°42' E 028°21'0 0.0
2017-Nov-14 15:24N 59°42' E 028°21'0 0.0
2017-Nov-14 14:57N 59°42' E 028°21'  
Track history (hours):
 
Tides and Currents Weather Stations Pressure Air Temp Water Temp Dewpoint Dewpoint Depression Visibility Wind Speed Wind Dir Waves Ship Positions

Ryurik

Last reported at 2017-Nov-24 14:30 UTC. Time now 2017-Nov-24 14:53 UTC.
Position N 59°42' E 028°21'.

; draft 5.9 m.

Type: Tug. MMSI: 273435190.

Date/timePositionNaut miles runAvg speedWind from/ knotsBaromVisibWave heightAir tempDewpointWater temp
2017-Nov-24 14:30N 59°42' E 028°21'0 0.0
2017-Nov-24 14:00N 59°42' E 028°21'0 0.0
2017-Nov-24 13:30N 59°42' E 028°21'0 0.0
2017-Nov-24 12:51N 59°42' E 028°21'0 0.0
2017-Nov-24 12:21N 59°42' E 028°21'0 0.1
2017-Nov-24 12:00N 59°42' E 028°21'2 3.7
2017-Nov-24 11:30N 59°41' E 028°24'1 1.7
2017-Nov-24 11:00N 59°40' E 028°24'2 4.0
2017-Nov-24 10:30N 59°42' E 028°26'0 0.0
2017-Nov-24 10:00N 59°42' E 028°26'0 0.7
2017-Nov-24 09:30N 59°42' E 028°25'1 2.0
2017-Nov-24 09:00N 59°43' E 028°24'1 1.4
2017-Nov-24 08:30N 59°43' E 028°22'0 0.5
2017-Nov-24 08:00N 59°43' E 028°23'1 2.7
2017-Nov-24 07:30N 59°42' E 028°21'0 0.5
2017-Nov-24 07:00N 59°42' E 028°20'0 0.0
2017-Nov-24 06:30N 59°42' E 028°20'0 0.0
2017-Nov-24 06:00N 59°42' E 028°20'0 0.0
2017-Nov-24 05:30N 59°42' E 028°20'3 6.4
2017-Nov-24 05:00N 59°44' E 028°25'1 2.8
2017-Nov-24 04:30N 59°42' E 028°26'0 0.2
2017-Nov-24 04:00N 59°42' E 028°26'3 5.5
2017-Nov-24 03:30N 59°42' E 028°20'0 0.7
2017-Nov-24 03:00N 59°42' E 028°19'0 0.0
2017-Nov-24 02:30N 59°42' E 028°19'0 0.0
2017-Nov-24 02:00N 59°42' E 028°19'0 0.0
2017-Nov-24 01:30N 59°42' E 028°19'0 0.0
2017-Nov-24 01:00N 59°42' E 028°19'0 0.0
2017-Nov-24 00:30N 59°42' E 028°19'0 0.0
2017-Nov-24 00:00N 59°42' E 028°19'0 0.0
2017-Nov-23 23:30N 59°42' E 028°19'0 0.0
2017-Nov-23 23:00N 59°42' E 028°19'0 0.0
2017-Nov-23 22:30N 59°42' E 028°19'0 0.0
2017-Nov-23 22:00N 59°42' E 028°19'0 0.0
2017-Nov-23 21:30N 59°42' E 028°19'2 4.6
2017-Nov-23 21:00N 59°42' E 028°24'2 3.4
2017-Nov-23 20:30N 59°41' E 028°23'1 1.1
2017-Nov-23 20:00N 59°41' E 028°24'2 4.0
2017-Nov-23 19:30N 59°43' E 028°24'3 5.3
2017-Nov-23 19:00N 59°45' E 028°24'4 7.9
2017-Nov-23 18:30N 59°42' E 028°20'0 0.1
2017-Nov-23 18:00N 59°42' E 028°20'0 0.0
2017-Nov-23 17:30N 59°42' E 028°20'0 0.0
2017-Nov-23 17:00N 59°42' E 028°20'0 0.0
2017-Nov-23 16:30N 59°42' E 028°20'0 0.0
2017-Nov-23 16:00N 59°42' E 028°20'0 0.0
2017-Nov-23 15:30N 59°42' E 028°20'0 0.0
2017-Nov-23 15:00N 59°42' E 028°20'0 0.0
2017-Nov-23 14:30N 59°42' E 028°20'0 0.0
2017-Nov-23 14:00N 59°42' E 028°20'0 0.0
2017-Nov-23 13:30N 59°42' E 028°20'0 0.0
2017-Nov-23 13:00N 59°42' E 028°20'0 0.0
2017-Nov-23 12:30N 59°42' E 028°20'0 0.0
2017-Nov-23 12:00N 59°42' E 028°20'0 0.0
2017-Nov-23 11:30N 59°42' E 028°20'0 0.0
2017-Nov-23 11:00N 59°42' E 028°20'0 0.0
2017-Nov-23 10:30N 59°42' E 028°20'0 0.0
2017-Nov-23 10:00N 59°42' E 028°20'0 0.0
2017-Nov-23 09:30N 59°42' E 028°20'0 0.0
2017-Nov-23 09:00N 59°42' E 028°20'0 0.0
2017-Nov-23 08:30N 59°42' E 028°20'0 0.0
2017-Nov-23 08:00N 59°42' E 028°20'0 0.0
2017-Nov-23 07:30N 59°42' E 028°20'0 0.0
2017-Nov-23 07:00N 59°42' E 028°20'0 0.0
2017-Nov-23 06:30N 59°42' E 028°20'0 0.0
2017-Nov-23 06:00N 59°42' E 028°20'0 0.0
2017-Nov-23 05:30N 59°42' E 028°20'0 0.0
2017-Nov-23 05:00N 59°42' E 028°20'0 0.0
2017-Nov-23 04:30N 59°42' E 028°20'0 0.0
2017-Nov-23 04:00N 59°42' E 028°20'0 0.0
2017-Nov-23 03:30N 59°42' E 028°20'0 0.0
2017-Nov-23 03:00N 59°42' E 028°20'0 0.0
2017-Nov-23 02:30N 59°42' E 028°20'0 0.0
2017-Nov-23 02:00N 59°42' E 028°20'0 0.0
2017-Nov-23 01:30N 59°42' E 028°20'0 0.0
2017-Nov-23 01:00N 59°42' E 028°20'0 0.0
2017-Nov-23 00:30N 59°42' E 028°20'0 0.0
2017-Nov-23 00:00N 59°42' E 028°20'2 3.2
2017-Nov-22 23:30N 59°43' E 028°23'2 3.0
2017-Nov-22 23:00N 59°42' E 028°26'0 0.0
2017-Nov-22 22:30N 59°42' E 028°26'0 0.1
2017-Nov-22 22:00N 59°42' E 028°25'1 1.5
2017-Nov-22 21:30N 59°42' E 028°24'2 3.4
2017-Nov-22 21:00N 59°43' E 028°23'2 3.9
2017-Nov-22 20:30N 59°41' E 028°25'0 0.0
2017-Nov-22 20:00N 59°41' E 028°25'0 0.2
2017-Nov-22 19:30N 59°42' E 028°25'  
2017-Nov-20 00:31N 59°42' E 028°22'0 0.0
2017-Nov-20 00:01N 59°42' E 028°22'0 0.0
2017-Nov-19 23:30N 59°42' E 028°22'0 0.0
2017-Nov-19 23:00N 59°42' E 028°22'0 0.0
2017-Nov-19 22:30N 59°42' E 028°22'0 0.0
2017-Nov-19 22:00N 59°42' E 028°22'0 0.0
2017-Nov-19 21:30N 59°42' E 028°22'0 0.0
2017-Nov-19 21:00N 59°42' E 028°22'0 0.0
2017-Nov-19 20:30N 59°42' E 028°22'1 3.0
2017-Nov-19 20:00N 59°43' E 028°23'2 3.1
2017-Nov-19 19:30N 59°44' E 028°25'2 3.5
2017-Nov-19 19:00N 59°42' E 028°25'0 0.2
2017-Nov-19 18:30N 59°42' E 028°26'1 1.8
2017-Nov-19 18:00N 59°41' E 028°25'2 3.8
2017-Nov-19 17:30N 59°42' E 028°21'0 0.0
2017-Nov-19 17:00N 59°42' E 028°21'0 0.0
2017-Nov-19 16:30N 59°42' E 028°21'0 0.0
2017-Nov-19 16:00N 59°42' E 028°21'0 0.0
2017-Nov-19 15:30N 59°42' E 028°21'0 0.0
2017-Nov-19 15:00N 59°42' E 028°21'0 0.0
2017-Nov-19 14:31N 59°42' E 028°21'0 0.0
2017-Nov-19 14:00N 59°42' E 028°21'0 0.0
2017-Nov-19 13:30N 59°42' E 028°21'0 0.0
2017-Nov-19 13:00N 59°42' E 028°21'0 0.0
2017-Nov-19 12:31N 59°42' E 028°21'0 0.0
2017-Nov-19 12:01N 59°42' E 028°21'2 3.5
2017-Nov-19 11:30N 59°41' E 028°25'0 0.8
2017-Nov-19 11:00N 59°41' E 028°25'1 1.9
2017-Nov-19 10:30N 59°42' E 028°24'1 2.5
2017-Nov-19 10:00N 59°42' E 028°22'0 0.0
2017-Nov-19 09:30N 59°42' E 028°22'0 0.0
2017-Nov-19 09:00N 59°42' E 028°22'0 0.0
2017-Nov-19 08:30N 59°42' E 028°22'0 0.0
2017-Nov-19 08:00N 59°42' E 028°22'0 0.0
2017-Nov-19 07:30N 59°42' E 028°22'0 0.0
2017-Nov-19 07:00N 59°42' E 028°22'0 0.0
2017-Nov-19 06:30N 59°42' E 028°22'0 0.0
2017-Nov-19 06:00N 59°42' E 028°22'0 0.0
2017-Nov-19 05:30N 59°42' E 028°22'0 0.0
2017-Nov-19 05:00N 59°42' E 028°22'0 0.0
2017-Nov-19 04:30N 59°42' E 028°22'0 0.0
2017-Nov-19 04:00N 59°42' E 028°22'0 0.0
2017-Nov-19 03:30N 59°42' E 028°22'0 0.0
2017-Nov-19 03:00N 59°42' E 028°22'0 0.0
2017-Nov-19 02:30N 59°42' E 028°22'0 0.0
2017-Nov-19 02:00N 59°42' E 028°22'0 0.0
2017-Nov-19 01:31N 59°42' E 028°22'0 0.0
2017-Nov-19 01:00N 59°42' E 028°22'0 0.0
2017-Nov-19 00:30N 59°42' E 028°22'0 0.0
2017-Nov-19 00:01N 59°42' E 028°22'0 0.0
2017-Nov-18 23:31N 59°42' E 028°22'0 0.0
2017-Nov-18 23:00N 59°42' E 028°22'0 0.0
2017-Nov-18 22:30N 59°42' E 028°22'1 3.0
2017-Nov-18 22:01N 59°43' E 028°23'2 3.8
2017-Nov-18 21:31N 59°45' E 028°25'2 4.3
2017-Nov-18 21:00N 59°42' E 028°25'0 0.1
2017-Nov-18 20:30N 59°42' E 028°26'0 0.3
2017-Nov-18 20:00N 59°42' E 028°25'1 1.3
2017-Nov-18 19:31N 59°42' E 028°25'0 0.8
2017-Nov-18 19:00N 59°41' E 028°25'0 0.0
2017-Nov-18 18:30N 59°41' E 028°25'2 3.5
2017-Nov-18 18:00N 59°42' E 028°22'1 1.4
2017-Nov-18 17:30N 59°42' E 028°22'0 0.0
2017-Nov-18 17:00N 59°42' E 028°22'0 0.0
2017-Nov-18 16:30N 59°42' E 028°22'0 0.0
2017-Nov-18 16:00N 59°42' E 028°22'0 0.0
2017-Nov-18 15:30N 59°42' E 028°22'0 0.0
2017-Nov-18 15:00N 59°42' E 028°22'0 0.0
2017-Nov-18 14:30N 59°42' E 028°22'0 0.8
2017-Nov-18 14:00N 59°42' E 028°22'2 3.7
2017-Nov-18 13:30N 59°41' E 028°24'0 0.8
2017-Nov-18 13:00N 59°41' E 028°23'2 3.4
2017-Nov-18 12:30N 59°42' E 028°21'0 0.6
2017-Nov-18 12:00N 59°42' E 028°20'2 4.0
2017-Nov-18 11:30N 59°42' E 028°24'1 2.0
2017-Nov-18 11:01N 59°42' E 028°26'0 0.4
2017-Nov-18 10:31N 59°42' E 028°25'1 1.4
2017-Nov-18 10:01N 59°42' E 028°24'4 7.7
2017-Nov-18 09:31N 59°46' E 028°24'4 7.5
2017-Nov-18 09:00N 59°42' E 028°24'2 3.1
2017-Nov-18 08:30N 59°40' E 028°24'0 0.0
2017-Nov-18 08:01N 59°40' E 028°24'2 3.6
2017-Nov-18 07:31N 59°42' E 028°22'0 0.1
2017-Nov-18 06:56N 59°42' E 028°22'0 0.0
2017-Nov-18 06:26N 59°42' E 028°22'0 0.0
2017-Nov-18 05:56N 59°42' E 028°22'0 0.0
2017-Nov-18 05:26N 59°42' E 028°22'0 0.0
2017-Nov-18 04:56N 59°42' E 028°22'0 0.0
2017-Nov-18 04:26N 59°42' E 028°22'0 0.0
2017-Nov-18 03:59N 59°42' E 028°22'0 0.0
2017-Nov-18 03:29N 59°42' E 028°22'0 0.0
2017-Nov-18 02:59N 59°42' E 028°22'0 0.0
2017-Nov-18 02:29N 59°42' E 028°22'0 0.0
2017-Nov-18 01:56N 59°42' E 028°22'0 0.0
2017-Nov-18 01:29N 59°42' E 028°22'0 0.0
2017-Nov-18 00:59N 59°42' E 028°22'0 0.0
2017-Nov-18 00:29N 59°42' E 028°22'0 0.0
2017-Nov-17 23:59N 59°42' E 028°22'0 0.0
2017-Nov-17 23:29N 59°42' E 028°22'1 1.2
2017-Nov-17 23:00N 59°42' E 028°22'2 3.6
2017-Nov-17 22:30N 59°41' E 028°25'0 0.5
2017-Nov-17 22:00N 59°41' E 028°25'2 3.6
2017-Nov-17 21:30N 59°43' E 028°23'0 0.7
2017-Nov-17 21:00N 59°43' E 028°24'1 2.8
2017-Nov-17 20:30N 59°41' E 028°25'0 0.1
2017-Nov-17 20:00N 59°41' E 028°25'0 0.0
2017-Nov-17 19:30N 59°41' E 028°25'2 3.0
2017-Nov-17 18:55N 59°42' E 028°22'0 0.0
2017-Nov-17 18:25N 59°42' E 028°22'0 0.0
2017-Nov-17 17:55N 59°42' E 028°22'0 0.0
2017-Nov-17 17:25N 59°42' E 028°22'0 0.0
2017-Nov-17 16:55N 59°42' E 028°22'0 0.0
2017-Nov-17 16:25N 59°42' E 028°22'0 0.0
2017-Nov-17 15:58N 59°42' E 028°22'0 0.0
2017-Nov-17 15:28N 59°42' E 028°22'0 0.0
2017-Nov-17 14:55N 59°42' E 028°22'0 0.0
2017-Nov-17 14:28N 59°42' E 028°22'0 0.0
2017-Nov-17 13:58N 59°42' E 028°22'0 0.0
2017-Nov-17 13:28N 59°42' E 028°22'0 0.0
2017-Nov-17 12:58N 59°42' E 028°22'0 0.0
2017-Nov-17 12:28N 59°42' E 028°22'0 0.0
2017-Nov-17 11:58N 59°42' E 028°22'0 0.0
2017-Nov-17 11:28N 59°42' E 028°22'0 0.0
2017-Nov-17 10:58N 59°42' E 028°22'0 0.0
2017-Nov-17 10:28N 59°42' E 028°22'0 0.0
2017-Nov-17 09:58N 59°42' E 028°22'0 0.0
2017-Nov-17 09:28N 59°42' E 028°22'0 0.0
2017-Nov-17 08:49N 59°42' E 028°22'0 0.0
2017-Nov-17 08:19N 59°42' E 028°22'0 0.0
2017-Nov-17 07:49N 59°42' E 028°22'0 0.0
2017-Nov-17 07:22N 59°42' E 028°22'0 0.0
2017-Nov-17 06:52N 59°42' E 028°22'0 0.0
2017-Nov-17 06:22N 59°42' E 028°22'0 0.0
2017-Nov-17 05:52N 59°42' E 028°22'0 0.0
2017-Nov-17 05:26N 59°42' E 028°22'0 0.6
2017-Nov-17 05:00N 59°42' E 028°22'2 3.8
2017-Nov-17 04:30N 59°43' E 028°26'0 0.0
2017-Nov-17 04:00N 59°43' E 028°26'0 0.1
2017-Nov-17 03:30N 59°43' E 028°25'1 2.0
2017-Nov-17 03:00N 59°42' E 028°25'2 3.5
2017-Nov-17 02:30N 59°43' E 028°23'1 2.8
2017-Nov-17 02:00N 59°44' E 028°25'0 0.5
2017-Nov-17 01:30N 59°44' E 028°25'0 0.5
2017-Nov-17 01:00N 59°44' E 028°24'0 0.5
2017-Nov-17 00:30N 59°44' E 028°24'3 5.7
2017-Nov-17 00:00N 59°41' E 028°24'1 1.4
2017-Nov-16 23:30N 59°41' E 028°23'1 1.0
2017-Nov-16 23:00N 59°41' E 028°24'2 3.9
2017-Nov-16 22:31N 59°43' E 028°24'3 6.1
2017-Nov-16 22:00N 59°46' E 028°24'3 6.6
2017-Nov-16 21:30N 59°42' E 028°22'1 1.4
2017-Nov-16 20:59N 59°42' E 028°22'0 0.0
2017-Nov-16 20:20N 59°42' E 028°22'0 0.0
2017-Nov-16 19:05N 59°42' E 028°22'0 0.0
2017-Nov-16 18:50N 59°42' E 028°22'0 0.0
2017-Nov-16 18:20N 59°42' E 028°22'0 0.0
2017-Nov-16 17:53N 59°42' E 028°22'0 0.0
2017-Nov-16 17:20N 59°42' E 028°22'0 0.0
2017-Nov-16 16:53N 59°42' E 028°22'0 0.0
2017-Nov-16 16:23N 59°42' E 028°22'0 0.0
2017-Nov-16 15:53N 59°42' E 028°22'0 0.0
2017-Nov-16 15:23N 59°42' E 028°22'0 0.0
2017-Nov-16 14:56N 59°42' E 028°22'0 0.0
2017-Nov-16 14:30N 59°42' E 028°22'2 3.7
2017-Nov-16 14:00N 59°41' E 028°25'0 0.1
2017-Nov-16 13:30N 59°41' E 028°25'0 0.2
2017-Nov-16 13:00N 59°41' E 028°25'0 0.0
2017-Nov-16 12:30N 59°41' E 028°25'2 3.8
2017-Nov-16 12:00N 59°42' E 028°22'1 1.1
2017-Nov-16 11:28N 59°42' E 028°22'0 0.0
2017-Nov-16 10:58N 59°42' E 028°22'0 0.0
2017-Nov-16 10:28N 59°42' E 028°22'0 0.0
2017-Nov-16 09:58N 59°42' E 028°22'0 0.0
2017-Nov-16 09:28N 59°42' E 028°22'0 0.0
2017-Nov-16 08:58N 59°42' E 028°22'0 0.0
2017-Nov-16 08:19N 59°42' E 028°22'0 0.0
2017-Nov-16 07:46N 59°42' E 028°22'0 0.0
2017-Nov-16 07:19N 59°42' E 028°22'0 0.0
2017-Nov-16 06:52N 59°42' E 028°22'0 0.0
2017-Nov-16 06:22N 59°42' E 028°22'0 0.0
2017-Nov-16 05:49N 59°42' E 028°22'0 0.0
2017-Nov-16 05:22N 59°42' E 028°22'0 0.0
2017-Nov-16 04:52N 59°42' E 028°22'0 0.0
2017-Nov-16 04:25N 59°42' E 028°22'0 0.0
2017-Nov-16 03:55N 59°42' E 028°22'0 0.1
2017-Nov-16 03:25N 59°42' E 028°22'0 0.0
2017-Nov-16 02:55N 59°42' E 028°22'0 0.0
2017-Nov-16 02:25N 59°42' E 028°22'0 0.0
2017-Nov-16 01:52N 59°42' E 028°22'0 0.0
2017-Nov-16 01:28N 59°42' E 028°22'0 0.0
2017-Nov-16 00:58N 59°42' E 028°22'0 0.0
2017-Nov-16 00:28N 59°42' E 028°22'1 2.8
2017-Nov-16 00:00N 59°43' E 028°24'1 2.7
2017-Nov-15 23:30N 59°41' E 028°25'0 0.0
2017-Nov-15 23:00N 59°41' E 028°25'0 0.9
2017-Nov-15 22:30N 59°41' E 028°25'0 0.0
2017-Nov-15 22:00N 59°41' E 028°25'1 1.5
2017-Nov-15 21:30N 59°42' E 028°24'2 3.2
2017-Nov-15 21:00N 59°43' E 028°23'2 4.4
2017-Nov-15 20:30N 59°41' E 028°25'0 0.3
2017-Nov-15 20:01N 59°41' E 028°25'0 0.0
2017-Nov-15 19:31N 59°41' E 028°25'0 0.1
2017-Nov-15 19:00N 59°41' E 028°25'0 0.7
2017-Nov-15 18:31N 59°41' E 028°25'0 0.6
2017-Nov-15 18:00N 59°41' E 028°25'2 3.3
2017-Nov-15 17:30N 59°43' E 028°24'2 3.4
2017-Nov-15 17:00N 59°42' E 028°21'0 0.1
2017-Nov-15 16:30N 59°42' E 028°21'0 0.0
2017-Nov-15 16:00N 59°42' E 028°21'0 0.0
2017-Nov-15 15:30N 59°42' E 028°21'0 0.0
2017-Nov-15 15:00N 59°42' E 028°21'0 0.0
2017-Nov-15 14:30N 59°42' E 028°21'0 0.0
2017-Nov-15 14:00N 59°42' E 028°21'0 0.0
2017-Nov-15 13:30N 59°42' E 028°21'0 0.0
2017-Nov-15 13:00N 59°42' E 028°21'0 0.0
2017-Nov-15 12:30N 59°42' E 028°21'0 0.0
2017-Nov-15 12:00N 59°42' E 028°21'0 0.0
2017-Nov-15 11:30N 59°42' E 028°21'0 0.0
2017-Nov-15 11:00N 59°42' E 028°21'0 0.0
2017-Nov-15 10:30N 59°42' E 028°21'0 0.0
2017-Nov-15 09:51N 59°42' E 028°21'0 0.0
2017-Nov-15 09:06N 59°42' E 028°21'0 0.0
2017-Nov-15 08:51N 59°42' E 028°21'0 0.0
2017-Nov-15 08:24N 59°42' E 028°21'0 0.0
2017-Nov-15 07:54N 59°42' E 028°21'0 0.0
2017-Nov-15 07:24N 59°42' E 028°21'0 0.0
2017-Nov-15 06:54N 59°42' E 028°21'0 0.0
2017-Nov-15 06:24N 59°42' E 028°21'0 0.0
2017-Nov-15 05:54N 59°42' E 028°21'0 0.0
2017-Nov-15 05:24N 59°42' E 028°21'0 0.0
2017-Nov-15 04:57N 59°42' E 028°21'0 0.0
2017-Nov-15 04:27N 59°42' E 028°21'0 0.0
2017-Nov-15 03:57N 59°42' E 028°21'0 0.0
2017-Nov-15 03:27N 59°42' E 028°21'0 0.0
2017-Nov-15 02:54N 59°42' E 028°21'0 0.0
2017-Nov-15 02:30N 59°42' E 028°21'0 0.0
2017-Nov-15 02:00N 59°42' E 028°21'0 0.0
2017-Nov-15 01:30N 59°42' E 028°21'0 0.0
2017-Nov-15 01:00N 59°42' E 028°21'0 0.0
2017-Nov-15 00:30N 59°42' E 028°21'0 0.0
2017-Nov-14 23:57N 59°42' E 028°21'0 0.0
2017-Nov-14 23:30N 59°42' E 028°21'0 0.0
2017-Nov-14 23:00N 59°42' E 028°21'0 0.0
2017-Nov-14 22:30N 59°42' E 028°21'0 0.0
2017-Nov-14 22:00N 59°42' E 028°21'0 0.0
2017-Nov-14 21:30N 59°42' E 028°21'0 0.0
2017-Nov-14 21:00N 59°42' E 028°21'0 0.0
2017-Nov-14 20:30N 59°42' E 028°21'0 0.0
2017-Nov-14 19:51N 59°42' E 028°21'0 0.0
2017-Nov-14 19:21N 59°42' E 028°21'0 0.0
2017-Nov-14 18:51N 59°42' E 028°21'0 0.0
2017-Nov-14 18:21N 59°42' E 028°21'0 0.0
2017-Nov-14 17:54N 59°42' E 028°21'0 0.0
2017-Nov-14 17:24N 59°42' E 028°21'0 0.0
2017-Nov-14 16:54N 59°42' E 028°21'0 0.0
2017-Nov-14 16:21N 59°42' E 028°21'0 0.0
2017-Nov-14 15:54N 59°42' E 028°21'0 0.0
2017-Nov-14 15:24N 59°42' E 028°21'0 0.0
2017-Nov-14 14:57N 59°42' E 028°21'  

Dump ship's entire track history